createdAt,value
2023-02-13T00:01:01.172Z,38.07
2023-02-13T00:02:03.065Z,38.77
2023-02-13T00:03:05.230Z,38.27
2023-02-13T00:04:06.759Z,38.53
2023-02-13T00:05:08.510Z,38.03
2023-02-13T00:06:10.165Z,37.00
2023-02-13T00:07:12.366Z,37.77
2023-02-13T00:08:14.006Z,37.27
2023-02-13T00:09:15.633Z,37.70
2023-02-13T00:10:17.625Z,37.47
2023-02-13T00:11:20.616Z,38.93
2023-02-13T00:12:22.179Z,37.43
2023-02-13T00:13:23.723Z,37.77
2023-02-13T00:14:25.348Z,38.67
2023-02-13T00:15:27.092Z,36.40
2023-02-13T00:16:28.686Z,36.73
2023-02-13T00:17:30.448Z,38.50
2023-02-13T00:18:36.453Z,37.57
2023-02-13T00:19:38.050Z,38.90
2023-02-13T00:20:39.656Z,38.70
2023-02-13T00:21:41.236Z,37.97
2023-02-13T00:22:42.768Z,37.67
2023-02-13T00:23:44.477Z,37.20
2023-02-13T00:24:46.098Z,37.27
2023-02-13T00:25:47.688Z,38.13
2023-02-13T00:26:49.317Z,37.10
2023-02-13T00:27:52.269Z,36.87
2023-02-13T00:28:53.894Z,36.47
2023-02-13T00:29:55.415Z,35.73
2023-02-13T00:31:13.298Z,37.23
2023-02-13T00:32:15.061Z,35.77
2023-02-13T00:33:16.792Z,37.17
2023-02-13T00:34:18.380Z,36.73
2023-02-13T00:35:19.947Z,36.57
2023-02-13T00:36:22.669Z,37.13
2023-02-13T00:37:25.175Z,36.13
2023-02-13T00:38:26.676Z,37.17
2023-02-13T00:39:28.407Z,36.73
2023-02-13T00:40:29.958Z,36.53
2023-02-13T00:41:31.537Z,36.07
2023-02-13T00:42:33.097Z,35.13
2023-02-13T00:43:35.629Z,36.73
2023-02-13T00:44:37.219Z,35.80
2023-02-13T00:45:38.778Z,35.17
2023-02-13T00:46:40.388Z,35.97
2023-02-13T00:47:41.936Z,35.77
2023-02-13T00:48:44.371Z,35.10
2023-02-13T00:49:46.498Z,32.70
2023-02-13T00:50:48.176Z,33.80
2023-02-13T00:51:49.703Z,32.23
2023-02-13T00:52:51.208Z,33.40
2023-02-13T00:53:52.774Z,33.07
2023-02-13T00:54:54.389Z,33.23
2023-02-13T00:55:55.960Z,33.07
2023-02-13T00:56:57.583Z,34.40
2023-02-13T00:57:59.080Z,35.20
2023-02-13T00:59:00.650Z,35.47
2023-02-13T01:00:02.581Z,33.27
2023-02-13T01:01:04.252Z,35.80
2023-02-13T01:02:05.794Z,35.27
2023-02-13T01:03:07.620Z,35.70
2023-02-13T01:04:09.232Z,35.60
2023-02-13T01:05:10.823Z,35.73
2023-02-13T01:06:12.527Z,34.97
2023-02-13T01:07:15.768Z,34.63
2023-02-13T01:08:19.394Z,36.20
2023-02-13T01:09:20.928Z,35.40
2023-02-13T01:10:22.591Z,33.57
2023-02-13T01:11:24.234Z,32.57
2023-02-13T01:12:25.950Z,31.93
2023-02-13T01:13:27.702Z,30.27
2023-02-13T01:14:29.270Z,31.40
2023-02-13T01:15:31.130Z,31.10
2023-02-13T01:16:32.686Z,30.57
2023-02-13T01:17:34.274Z,30.97
2023-02-13T01:18:35.859Z,29.70
2023-02-13T01:19:37.451Z,31.17
2023-02-13T01:20:38.998Z,30.33
2023-02-13T01:21:40.522Z,30.40
2023-02-13T01:22:44.387Z,31.73
2023-02-13T01:23:46.977Z,30.70
2023-02-13T01:24:48.656Z,32.67
2023-02-13T01:25:51.798Z,31.75
2023-02-13T01:26:53.353Z,30.40
2023-02-13T01:27:54.909Z,30.80
2023-02-13T01:28:58.053Z,31.10
2023-02-13T01:30:00.187Z,32.53
2023-02-13T01:31:02.717Z,30.25
2023-02-13T01:32:05.247Z,29.40
2023-02-13T01:33:06.844Z,31.02
2023-02-13T01:34:08.359Z,31.17
2023-02-13T01:35:11.427Z,31.65
2023-02-13T01:36:14.441Z,31.38
2023-02-13T01:37:16.451Z,32.33
2023-02-13T01:38:18.786Z,30.67
2023-02-13T01:39:20.346Z,31.67
2023-02-13T01:40:21.998Z,31.85
2023-02-13T01:41:25.118Z,31.58
2023-02-13T01:42:30.216Z,33.17
2023-02-13T01:43:53.572Z,32.38
2023-02-13T01:45:04.128Z,35.13
2023-02-13T01:46:05.764Z,39.83
2023-02-13T01:47:09.789Z,40.22
2023-02-13T01:48:22.910Z,40.33
2023-02-13T01:49:26.128Z,40.40
2023-02-13T01:50:41.111Z,40.83
2023-02-13T01:51:43.742Z,40.53
2023-02-13T01:53:00.418Z,38.72
2023-02-13T01:54:07.526Z,38.95
2023-02-13T01:55:10.971Z,39.60
2023-02-13T01:56:29.936Z,40.88
2023-02-13T01:57:32.727Z,40.60
2023-02-13T01:58:37.953Z,40.58
2023-02-13T01:59:55.356Z,41.85
2023-02-13T02:00:58.612Z,42.22
2023-02-13T02:02:01.482Z,41.42
2023-02-13T02:03:11.053Z,41.20
2023-02-13T02:04:18.440Z,40.72
2023-02-13T02:05:24.033Z,39.10
2023-02-13T02:06:29.330Z,40.40
2023-02-13T02:07:32.788Z,39.60
2023-02-13T02:08:34.943Z,38.83
2023-02-13T02:09:41.102Z,40.40
2023-02-13T02:10:43.004Z,39.35
2023-02-13T02:11:47.521Z,38.15
2023-02-13T02:13:07.382Z,38.42
2023-02-13T02:14:09.139Z,37.70
2023-02-13T02:15:10.988Z,37.55
2023-02-13T02:16:12.798Z,37.05
2023-02-13T02:17:14.440Z,35.57
2023-02-13T02:18:19.685Z,35.63
2023-02-13T02:19:41.455Z,33.50
2023-02-13T02:20:43.002Z,33.35
2023-02-13T02:22:17.919Z,32.95
2023-02-13T02:23:59.659Z,32.60
2023-02-13T02:25:18.538Z,31.83
2023-02-13T02:27:01.619Z,31.77
2023-02-13T02:28:27.784Z,35.25
2023-02-13T02:29:32.194Z,33.50
2023-02-13T02:30:46.136Z,34.53
2023-02-13T02:32:09.669Z,35.87
2023-02-13T02:33:20.354Z,33.73
2023-02-13T02:34:37.096Z,34.90
2023-02-13T02:36:11.198Z,35.07
2023-02-13T02:37:43.778Z,32.97
2023-02-13T02:38:51.277Z,33.47
2023-02-13T02:40:19.054Z,35.53
2023-02-13T02:41:41.648Z,35.53
2023-02-13T02:42:55.602Z,36.43
2023-02-13T02:44:24.713Z,36.80
2023-02-13T02:45:40.904Z,36.33
2023-02-13T02:47:15.015Z,35.27
2023-02-13T02:48:53.228Z,35.10
2023-02-13T02:50:07.474Z,35.17
2023-02-13T02:51:33.083Z,35.00
2023-02-13T02:52:57.565Z,36.87
2023-02-13T02:54:35.810Z,37.17
2023-02-13T02:56:05.074Z,37.43
2023-02-13T02:57:49.863Z,36.33
2023-02-13T02:59:24.028Z,36.63
2023-02-13T03:00:47.506Z,37.57
2023-02-13T03:02:09.271Z,37.07
2023-02-13T03:03:43.890Z,39.63
2023-02-13T03:05:11.769Z,39.17
2023-02-13T03:06:38.535Z,40.10
2023-02-13T03:07:40.106Z,38.03
2023-02-13T03:09:04.620Z,39.47
2023-02-13T03:10:28.923Z,39.03
2023-02-13T03:11:49.253Z,159.67
2023-02-13T03:13:15.390Z,41.73
2023-02-13T03:14:21.232Z,40.47
2023-02-13T03:15:26.298Z,38.17
2023-02-13T03:16:46.238Z,37.30
2023-02-13T03:18:06.334Z,39.10
2023-02-13T03:19:36.838Z,40.70
2023-02-13T03:21:14.416Z,37.17
2023-02-13T03:22:42.178Z,38.38
2023-02-13T03:23:51.172Z,38.67
2023-02-13T03:25:10.990Z,39.27
2023-02-13T03:26:18.314Z,40.43
2023-02-13T03:28:26.612Z,39.43
2023-02-13T03:29:58.765Z,42.13
2023-02-13T03:31:29.896Z,41.63
2023-02-13T03:32:34.417Z,43.58
2023-02-13T03:33:45.005Z,42.13
2023-02-13T03:35:14.456Z,43.40
2023-02-13T03:36:55.758Z,43.20
2023-02-13T03:38:08.445Z,42.90
2023-02-13T03:39:09.997Z,42.92
2023-02-13T03:41:00.367Z,42.97
2023-02-13T03:42:06.227Z,39.55
2023-02-13T03:43:15.145Z,38.97
2023-02-13T03:44:40.243Z,38.70
2023-02-13T03:45:57.193Z,38.85
2023-02-13T03:47:02.382Z,38.65
2023-02-13T03:48:27.611Z,38.88
2023-02-13T03:50:04.044Z,37.30
2023-02-13T03:51:08.689Z,39.58
2023-02-13T03:52:23.263Z,41.58
2023-02-13T03:53:27.329Z,38.40
2023-02-13T03:54:53.797Z,39.63
2023-02-13T03:56:16.718Z,38.53
2023-02-13T03:57:39.865Z,38.78
2023-02-13T03:59:05.318Z,45.85
2023-02-13T04:00:11.168Z,45.03
2023-02-13T04:01:16.955Z,45.83
2023-02-13T04:02:24.541Z,45.72
2023-02-13T04:03:35.605Z,46.45
2023-02-13T04:04:49.948Z,43.75
2023-02-13T04:06:14.120Z,41.05
2023-02-13T04:07:29.617Z,40.85
2023-02-13T04:08:31.331Z,41.00
2023-02-13T04:09:37.465Z,42.75
2023-02-13T04:10:50.295Z,45.67
2023-02-13T04:12:03.349Z,46.05
2023-02-13T04:13:13.314Z,45.67
2023-02-13T04:14:22.002Z,46.80
2023-02-13T04:15:33.723Z,45.78
2023-02-13T04:16:42.635Z,44.30
2023-02-13T04:17:50.236Z,44.38
2023-02-13T04:18:53.162Z,43.58
2023-02-13T04:19:54.928Z,43.75
2023-02-13T04:20:56.816Z,45.00
2023-02-13T04:22:01.231Z,47.55
2023-02-13T04:23:08.720Z,45.13
2023-02-13T04:24:10.669Z,44.65
2023-02-13T04:25:13.964Z,43.20
2023-02-13T04:26:19.607Z,43.95
2023-02-13T04:27:21.199Z,43.92
2023-02-13T04:28:22.869Z,44.35
2023-02-13T04:29:25.973Z,43.90
2023-02-13T04:30:27.601Z,43.83
2023-02-13T04:31:29.208Z,44.13
2023-02-13T04:32:30.811Z,44.70
2023-02-13T04:33:32.349Z,43.03
2023-02-13T04:34:33.997Z,41.38
2023-02-13T04:35:35.585Z,42.60
2023-02-13T04:36:37.190Z,41.75
2023-02-13T04:37:38.799Z,44.25
2023-02-13T04:38:40.361Z,41.55
2023-02-13T04:39:41.934Z,43.78
2023-02-13T04:40:43.527Z,43.50
2023-02-13T04:41:45.244Z,41.50
2023-02-13T04:42:50.494Z,42.20
2023-02-13T04:43:52.585Z,41.20
2023-02-13T04:44:54.151Z,42.67
2023-02-13T04:45:55.736Z,41.92
2023-02-13T04:46:57.302Z,40.93
2023-02-13T04:47:59.463Z,40.35
2023-02-13T04:49:01.046Z,41.17
2023-02-13T04:50:02.680Z,41.13
2023-02-13T04:51:04.503Z,39.63
2023-02-13T04:52:06.113Z,42.13
2023-02-13T04:53:07.741Z,43.05
2023-02-13T04:54:11.228Z,44.72
2023-02-13T04:55:13.269Z,44.77
2023-02-13T04:56:15.156Z,42.15
2023-02-13T04:57:16.731Z,40.95
2023-02-13T04:58:18.502Z,44.58
2023-02-13T04:59:20.015Z,43.55
2023-02-13T05:00:23.364Z,45.40
2023-02-13T05:01:24.949Z,42.20
2023-02-13T05:02:26.714Z,42.33
2023-02-13T05:03:28.305Z,43.13
2023-02-13T05:04:29.932Z,42.20
2023-02-13T05:05:31.619Z,43.80
2023-02-13T05:06:33.180Z,44.42
2023-02-13T05:07:34.716Z,42.80
2023-02-13T05:08:36.307Z,41.03
2023-02-13T05:09:39.541Z,41.95
2023-02-13T05:10:42.084Z,39.10
2023-02-13T05:11:43.684Z,38.20
2023-02-13T05:12:45.235Z,40.17
2023-02-13T05:13:46.816Z,40.33
2023-02-13T05:14:48.384Z,47.72
2023-02-13T05:15:50.501Z,54.50
2023-02-13T05:16:52.278Z,51.08
2023-02-13T05:17:53.951Z,50.90
2023-02-13T05:18:55.509Z,52.45
2023-02-13T05:19:57.337Z,50.70
2023-02-13T05:21:17.181Z,51.35
2023-02-13T05:22:37.037Z,50.65
2023-02-13T05:23:38.592Z,51.63
2023-02-13T05:24:40.208Z,51.17
2023-02-13T05:25:42.406Z,50.47
2023-02-13T05:26:43.933Z,51.20
2023-02-13T05:27:45.493Z,50.00
2023-02-13T05:29:05.891Z,50.00
2023-02-13T05:30:07.797Z,47.75
2023-02-13T05:31:09.458Z,49.40
2023-02-13T05:32:11.275Z,51.20
2023-02-13T05:33:12.897Z,50.58
2023-02-13T05:34:14.906Z,50.13
2023-02-13T05:35:16.706Z,47.15
2023-02-13T05:36:18.226Z,48.20
2023-02-13T05:37:19.804Z,48.78
2023-02-13T05:38:21.370Z,48.22
2023-02-13T05:39:23.136Z,54.58
2023-02-13T05:40:24.677Z,52.58
2023-02-13T05:41:26.487Z,54.17
2023-02-13T05:42:28.112Z,50.10
2023-02-13T05:43:30.241Z,52.75
2023-02-13T05:44:32.041Z,50.78
2023-02-13T05:45:33.701Z,49.72
2023-02-13T05:46:39.228Z,52.30
2023-02-13T05:47:41.026Z,50.70
2023-02-13T05:48:42.565Z,50.58
2023-02-13T05:49:44.194Z,49.30
2023-02-13T05:50:47.282Z,51.13
2023-02-13T05:51:49.688Z,50.65
2023-02-13T05:52:51.221Z,50.47
2023-02-13T05:53:53.084Z,50.22
2023-02-13T05:54:54.738Z,52.78
2023-02-13T05:55:56.670Z,53.28
2023-02-13T05:56:58.237Z,52.13
2023-02-13T05:57:59.843Z,52.65
2023-02-13T05:59:01.412Z,48.72
2023-02-13T06:00:04.628Z,48.15
2023-02-13T06:01:06.270Z,46.47
2023-02-13T06:02:07.991Z,46.87
2023-02-13T06:03:09.542Z,49.30
2023-02-13T06:04:11.167Z,48.97
2023-02-13T06:05:12.809Z,50.95
2023-02-13T06:06:14.551Z,51.30
2023-02-13T06:07:16.171Z,51.17
2023-02-13T06:08:17.815Z,51.40
2023-02-13T06:09:19.378Z,52.43
2023-02-13T06:10:21.051Z,53.38
2023-02-13T06:11:22.643Z,51.33
2023-02-13T06:12:24.205Z,52.03
2023-02-13T06:13:26.103Z,54.17
2023-02-13T06:14:28.286Z,54.77
2023-02-13T06:15:29.830Z,54.63
2023-02-13T06:16:31.460Z,53.47
2023-02-13T06:17:33.059Z,51.53
2023-02-13T06:18:35.335Z,45.53
2023-02-13T06:19:36.941Z,40.80
2023-02-13T06:20:38.649Z,42.40
2023-02-13T06:21:40.231Z,44.33
2023-02-13T06:22:41.745Z,49.67
2023-02-13T06:23:43.362Z,48.43
2023-02-13T06:24:44.936Z,47.63
2023-02-13T06:25:46.486Z,45.90
2023-02-13T06:26:48.017Z,46.80
2023-02-13T06:27:49.625Z,45.83
2023-02-13T06:28:51.540Z,45.23
2023-02-13T06:29:53.148Z,43.10
2023-02-13T06:30:54.883Z,40.63
2023-02-13T06:31:57.528Z,40.90
2023-02-13T06:32:59.375Z,43.27
2023-02-13T06:34:01.038Z,43.13
2023-02-13T06:35:05.228Z,44.73
2023-02-13T06:36:07.560Z,45.70
2023-02-13T06:37:09.262Z,47.23
2023-02-13T06:38:10.811Z,46.70
2023-02-13T06:39:12.404Z,47.07
2023-02-13T06:40:14.965Z,48.90
2023-02-13T06:41:16.674Z,48.90
2023-02-13T06:42:18.915Z,53.03
2023-02-13T06:43:23.294Z,55.97
2023-02-13T06:44:24.924Z,52.23
2023-02-13T06:45:26.519Z,52.23
2023-02-13T06:46:28.143Z,48.73
2023-02-13T06:47:29.957Z,49.53
2023-02-13T06:48:31.523Z,48.23
2023-02-13T06:49:33.042Z,49.40
2023-02-13T06:50:34.751Z,50.77
2023-02-13T06:51:36.424Z,52.57
2023-02-13T06:52:38.086Z,52.13
2023-02-13T06:53:39.769Z,56.60
2023-02-13T06:54:47.759Z,61.13
2023-02-13T06:55:49.611Z,76.13
2023-02-13T06:56:51.352Z,63.93
2023-02-13T06:57:52.914Z,56.80
2023-02-13T06:58:54.467Z,51.73
2023-02-13T06:59:55.990Z,49.80
2023-02-13T07:00:57.881Z,51.83
2023-02-13T07:01:59.655Z,50.80
2023-02-13T07:03:03.420Z,51.17
2023-02-13T07:04:05.027Z,51.67
2023-02-13T07:05:07.224Z,52.70
2023-02-13T07:06:08.784Z,50.07
2023-02-13T07:07:10.399Z,51.40
2023-02-13T07:08:13.162Z,54.03
2023-02-13T07:09:14.803Z,53.63
2023-02-13T07:10:16.506Z,52.70
2023-02-13T07:11:19.615Z,53.17
2023-02-13T07:12:21.377Z,50.57
2023-02-13T07:13:23.306Z,49.27
2023-02-13T07:14:25.237Z,48.53
2023-02-13T07:15:27.335Z,47.10
2023-02-13T07:16:29.476Z,45.37
2023-02-13T07:17:31.602Z,46.27
2023-02-13T07:18:33.218Z,44.57
2023-02-13T07:19:34.756Z,44.40
2023-02-13T07:20:36.385Z,44.03
2023-02-13T07:21:38.111Z,43.93
2023-02-13T07:22:39.691Z,41.20
2023-02-13T07:23:41.512Z,40.47
2023-02-13T07:24:43.070Z,40.90
2023-02-13T07:25:44.583Z,40.73
2023-02-13T07:26:46.111Z,40.67
2023-02-13T07:27:47.643Z,38.00
2023-02-13T07:28:50.048Z,36.70
2023-02-13T07:29:52.931Z,37.57
2023-02-13T07:30:54.886Z,39.13
2023-02-13T07:31:58.076Z,41.47
2023-02-13T07:33:04.034Z,37.13
2023-02-13T07:34:05.632Z,36.43
2023-02-13T07:35:07.269Z,36.23
2023-02-13T07:36:09.003Z,37.40
2023-02-13T07:37:11.560Z,36.27
2023-02-13T07:38:13.183Z,37.40
2023-02-13T07:39:14.756Z,38.90
2023-02-13T07:40:16.312Z,40.33
2023-02-13T07:41:17.846Z,38.80
2023-02-13T07:42:19.467Z,41.07
2023-02-13T07:43:21.206Z,40.63
2023-02-13T07:44:22.718Z,42.07
2023-02-13T07:45:24.269Z,44.40
2023-02-13T07:46:25.878Z,51.73
2023-02-13T07:47:27.481Z,46.97
2023-02-13T07:48:30.244Z,50.70
2023-02-13T07:49:31.798Z,49.00
2023-02-13T07:50:33.368Z,56.70
2023-02-13T07:51:34.899Z,43.57
2023-02-13T07:52:37.963Z,42.23
2023-02-13T07:53:39.551Z,42.30
2023-02-13T07:54:47.427Z,41.50
2023-02-13T07:55:49.336Z,42.43
2023-02-13T07:56:50.913Z,43.97
2023-02-13T07:57:52.591Z,44.23
2023-02-13T07:58:54.192Z,44.33
2023-02-13T07:59:55.733Z,44.10
2023-02-13T08:00:57.344Z,45.33
2023-02-13T08:01:58.918Z,45.33
2023-02-13T08:03:01.648Z,45.47
2023-02-13T08:04:03.458Z,44.00
2023-02-13T08:05:05.512Z,42.20
2023-02-13T08:06:08.042Z,43.73
2023-02-13T08:07:09.613Z,42.87
2023-02-13T08:08:11.227Z,43.17
2023-02-13T08:09:39.748Z,41.33
2023-02-13T08:11:00.650Z,41.27
2023-02-13T08:12:02.276Z,41.93
2023-02-13T08:13:04.935Z,39.43
2023-02-13T08:14:06.441Z,41.77
2023-02-13T08:15:12.066Z,41.63
2023-02-13T08:16:13.632Z,39.03
2023-02-13T08:17:15.252Z,39.90
2023-02-13T08:18:18.899Z,38.83
2023-02-13T08:19:21.487Z,36.77
2023-02-13T08:20:24.074Z,34.80
2023-02-13T08:21:25.713Z,36.67
2023-02-13T08:22:27.268Z,32.70
2023-02-13T08:23:29.094Z,32.03
2023-02-13T08:24:30.683Z,33.40
2023-02-13T08:25:33.370Z,35.17
2023-02-13T08:26:35.167Z,35.50
2023-02-13T08:27:36.845Z,37.23
2023-02-13T08:28:38.455Z,37.03
2023-02-13T08:29:40.081Z,36.57
2023-02-13T08:30:41.794Z,37.07
2023-02-13T08:31:43.859Z,36.17
2023-02-13T08:32:54.510Z,34.93
2023-02-13T08:33:57.614Z,34.87
2023-02-13T08:34:59.179Z,35.83
2023-02-13T08:36:03.688Z,34.70
2023-02-13T08:37:05.267Z,35.30
2023-02-13T08:38:06.902Z,34.40
2023-02-13T08:39:09.961Z,34.67
2023-02-13T08:40:11.798Z,34.30
2023-02-13T08:41:14.139Z,35.30
2023-02-13T08:42:16.391Z,33.77
2023-02-13T08:43:18.135Z,36.10
2023-02-13T08:44:19.705Z,36.33
2023-02-13T08:45:21.271Z,38.33
2023-02-13T08:46:23.135Z,37.10
2023-02-13T08:47:24.697Z,37.70
2023-02-13T08:48:29.812Z,35.87
2023-02-13T08:49:31.360Z,37.73
2023-02-13T08:50:33.628Z,39.70
2023-02-13T08:51:36.180Z,37.53
2023-02-13T08:52:37.690Z,37.93
2023-02-13T08:53:40.178Z,37.03
2023-02-13T08:54:41.723Z,36.93
2023-02-13T08:55:43.262Z,36.43
2023-02-13T08:56:44.858Z,53.37
2023-02-13T08:57:46.591Z,44.87
2023-02-13T08:58:50.131Z,43.47
2023-02-13T08:59:51.745Z,45.60
2023-02-13T09:00:53.321Z,40.73
2023-02-13T09:01:54.902Z,38.20
2023-02-13T09:03:03.984Z,39.93
2023-02-13T09:04:05.810Z,38.60
2023-02-13T09:05:07.515Z,35.87
2023-02-13T09:06:09.102Z,34.17
2023-02-13T09:07:10.735Z,35.37
2023-02-13T09:08:13.718Z,35.77
2023-02-13T09:09:16.146Z,34.77
2023-02-13T09:10:18.331Z,35.73
2023-02-13T09:11:22.944Z,35.30
2023-02-13T09:12:24.553Z,36.00
2023-02-13T09:13:26.297Z,36.07
2023-02-13T09:14:27.866Z,36.53
2023-02-13T09:15:30.127Z,39.07
2023-02-13T09:16:31.896Z,37.90
2023-02-13T09:17:33.532Z,39.13
2023-02-13T09:18:35.461Z,44.77
2023-02-13T09:19:37.071Z,41.03
2023-02-13T09:20:38.641Z,39.87
2023-02-13T09:21:40.313Z,38.83
2023-02-13T09:22:42.122Z,37.27
2023-02-13T09:23:44.012Z,37.37
2023-02-13T09:24:45.601Z,34.60
2023-02-13T09:25:47.229Z,37.03
2023-02-13T09:26:48.956Z,35.70
2023-02-13T09:27:50.520Z,34.30
2023-02-13T09:28:52.077Z,52.23
2023-02-13T09:29:53.654Z,50.20
2023-02-13T09:30:55.412Z,36.67
2023-02-13T09:31:57.359Z,36.13
2023-02-13T09:32:59.051Z,34.10
2023-02-13T09:34:00.640Z,35.80
2023-02-13T09:35:02.232Z,35.53
2023-02-13T09:36:24.541Z,37.87
2023-02-13T09:37:27.131Z,35.37
2023-02-13T09:38:28.683Z,34.60
2023-02-13T09:39:30.316Z,36.07
2023-02-13T09:40:42.600Z,35.17
2023-02-13T09:41:47.322Z,34.53
2023-02-13T09:42:50.178Z,33.40
2023-02-13T09:44:06.460Z,35.63
2023-02-13T09:45:12.304Z,34.33
2023-02-13T09:46:40.640Z,34.53
2023-02-13T09:47:45.197Z,34.53
2023-02-13T09:48:56.150Z,35.93
2023-02-13T09:50:23.081Z,34.57
2023-02-13T09:51:27.837Z,33.70
2023-02-13T09:52:33.627Z,35.07
2023-02-13T09:53:36.355Z,36.33
2023-02-13T09:54:38.100Z,33.03
2023-02-13T09:55:53.014Z,32.63
2023-02-13T09:57:16.399Z,35.13
2023-02-13T09:58:27.143Z,36.77
2023-02-13T10:00:04.053Z,49.87
2023-02-13T10:01:17.684Z,35.17
2023-02-13T10:02:43.041Z,36.57
2023-02-13T10:04:11.613Z,32.93
2023-02-13T10:05:31.767Z,34.47
2023-02-13T10:06:50.054Z,35.03
2023-02-13T10:08:16.528Z,35.90
2023-02-13T10:09:41.152Z,35.77
2023-02-13T10:10:45.289Z,33.07
2023-02-13T10:12:16.099Z,32.67
2023-02-13T10:13:39.702Z,31.10
2023-02-13T10:14:47.361Z,33.13
2023-02-13T10:16:07.698Z,33.80
2023-02-13T10:17:18.777Z,32.10
2023-02-13T10:18:25.809Z,33.13
2023-02-13T10:19:55.388Z,32.87
2023-02-13T10:21:02.335Z,30.17
2023-02-13T10:22:26.064Z,32.13
2023-02-13T10:23:34.340Z,31.70
2023-02-13T10:24:38.976Z,31.97
2023-02-13T10:25:58.651Z,31.00
2023-02-13T10:27:05.252Z,32.63
2023-02-13T10:28:13.461Z,31.17
2023-02-13T10:29:51.262Z,33.07
2023-02-13T10:30:56.941Z,31.97
2023-02-13T10:32:02.267Z,34.07
2023-02-13T10:33:21.653Z,31.30
2023-02-13T10:34:27.332Z,31.30
2023-02-13T10:35:31.434Z,29.37
2023-02-13T10:36:37.686Z,27.80
2023-02-13T10:37:39.316Z,28.03
2023-02-13T10:38:56.826Z,53.37
2023-02-13T10:39:58.470Z,68.33
2023-02-13T10:41:10.647Z,33.03
2023-02-13T10:42:24.683Z,42.83
2023-02-13T10:43:30.124Z,29.73
2023-02-13T10:44:41.251Z,31.60
2023-02-13T10:45:45.509Z,28.00
2023-02-13T10:46:58.915Z,27.80
2023-02-13T10:48:14.796Z,29.53
2023-02-13T10:49:18.819Z,28.43
2023-02-13T10:50:34.459Z,28.37
2023-02-13T10:52:00.821Z,30.20
2023-02-13T10:53:32.142Z,30.23
2023-02-13T10:55:07.529Z,30.73
2023-02-13T10:56:25.653Z,32.67
2023-02-13T10:57:55.695Z,33.30
2023-02-13T10:59:19.623Z,35.70
2023-02-13T11:00:43.301Z,36.50
2023-02-13T11:01:52.733Z,36.07
2023-02-13T11:02:56.347Z,36.63
2023-02-13T11:04:13.552Z,35.57
2023-02-13T11:05:30.359Z,34.77
2023-02-13T11:06:34.728Z,35.10
2023-02-13T11:07:39.214Z,33.07
2023-02-13T11:08:47.637Z,33.77
2023-02-13T11:09:51.873Z,32.40
2023-02-13T11:10:53.658Z,33.10
2023-02-13T11:11:55.306Z,31.90
2023-02-13T11:12:56.852Z,32.37
2023-02-13T11:14:12.597Z,33.03
2023-02-13T11:15:40.365Z,33.00
2023-02-13T11:17:05.922Z,32.10
2023-02-13T11:18:19.389Z,30.17
2023-02-13T11:19:37.506Z,32.37
2023-02-13T11:20:44.680Z,32.27
2023-02-13T11:21:47.679Z,29.87
2023-02-13T11:22:49.436Z,29.07
2023-02-13T11:23:53.573Z,29.60
2023-02-13T11:25:00.699Z,31.90
2023-02-13T11:26:13.277Z,31.27
2023-02-13T11:27:15.071Z,29.80
2023-02-13T11:28:21.067Z,30.37
2023-02-13T11:29:26.959Z,30.13
2023-02-13T11:30:36.734Z,28.73
2023-02-13T11:31:38.669Z,29.83
2023-02-13T11:32:40.472Z,29.50
2023-02-13T11:33:42.705Z,28.77
2023-02-13T11:34:45.449Z,26.33
2023-02-13T11:35:48.077Z,28.83
2023-02-13T11:36:54.533Z,29.83
2023-02-13T11:38:20.869Z,30.00
2023-02-13T11:39:26.850Z,30.50
2023-02-13T11:40:32.449Z,30.97
2023-02-13T11:41:42.317Z,30.40
2023-02-13T11:42:48.033Z,30.97
2023-02-13T11:44:02.073Z,29.03
2023-02-13T11:45:19.843Z,28.80
2023-02-13T11:46:25.458Z,30.17
2023-02-13T11:47:42.326Z,28.57
2023-02-13T11:48:55.777Z,29.23
2023-02-13T11:49:57.390Z,26.27
2023-02-13T11:50:59.386Z,25.53
2023-02-13T11:52:23.012Z,25.03
2023-02-13T11:53:31.502Z,16.90
2023-02-13T11:54:35.247Z,18.63
2023-02-13T11:55:39.753Z,17.93
2023-02-13T11:57:07.369Z,19.33
2023-02-13T11:58:11.861Z,20.90
2023-02-13T11:59:14.218Z,24.57
2023-02-13T12:00:37.830Z,25.23
2023-02-13T12:01:39.463Z,24.23
2023-02-13T12:02:48.047Z,18.70
2023-02-13T12:04:18.502Z,19.30
2023-02-13T12:05:22.882Z,17.43
2023-02-13T12:06:24.405Z,17.27
2023-02-13T12:07:31.036Z,19.10
2023-02-13T12:08:35.615Z,18.97
2023-02-13T12:09:40.197Z,18.97
2023-02-13T12:10:41.875Z,17.53
2023-02-13T12:11:48.330Z,16.67
2023-02-13T12:13:06.048Z,16.70
2023-02-13T12:14:14.056Z,19.00
2023-02-13T12:15:22.440Z,16.97
2023-02-13T12:16:29.424Z,17.50
2023-02-13T12:17:33.089Z,19.47
2023-02-13T12:18:38.810Z,19.17
2023-02-13T12:19:43.879Z,18.30
2023-02-13T12:21:11.435Z,18.40
2023-02-13T12:22:21.911Z,18.73
2023-02-13T12:23:29.556Z,18.67
2023-02-13T12:25:16.543Z,18.17
2023-02-13T12:26:50.525Z,16.17
2023-02-13T12:28:35.487Z,17.60
2023-02-13T12:29:55.756Z,17.27
2023-02-13T12:31:09.424Z,18.63
2023-02-13T12:32:19.229Z,16.70
2023-02-13T12:33:36.874Z,16.00
2023-02-13T12:35:15.897Z,15.00
2023-02-13T12:36:23.502Z,17.23
2023-02-13T12:37:59.161Z,16.87
2023-02-13T12:39:26.244Z,16.00
2023-02-13T12:40:42.930Z,15.80
2023-02-13T12:41:50.448Z,16.37
2023-02-13T12:43:07.719Z,17.53
2023-02-13T12:44:33.650Z,17.87
2023-02-13T12:45:43.541Z,13.90
2023-02-13T12:47:06.489Z,16.53
2023-02-13T12:48:48.291Z,15.67
2023-02-13T12:50:06.483Z,15.43
2023-02-13T12:51:26.890Z,14.60
2023-02-13T12:53:01.378Z,16.37
2023-02-13T12:54:21.367Z,15.53
2023-02-13T12:56:00.482Z,15.97
2023-02-13T12:57:23.358Z,14.97
2023-02-13T12:58:38.481Z,15.20
2023-02-13T13:00:15.494Z,16.20
2023-02-13T13:01:44.601Z,15.73
2023-02-13T13:02:57.258Z,15.30
2023-02-13T13:04:07.975Z,17.40
2023-02-13T13:05:24.775Z,16.67
2023-02-13T13:06:35.567Z,15.80
2023-02-13T13:08:00.651Z,16.70
2023-02-13T13:09:23.571Z,17.73
2023-02-13T13:10:35.987Z,17.33
2023-02-13T13:11:59.010Z,17.33
2023-02-13T13:13:27.929Z,17.27
2023-02-13T13:14:48.312Z,16.93
2023-02-13T13:16:04.846Z,17.03
2023-02-13T13:17:34.136Z,17.63
2023-02-13T13:18:50.215Z,17.33
2023-02-13T13:20:21.380Z,16.93
2023-02-13T13:21:53.466Z,16.80
2023-02-13T13:23:00.097Z,17.60
2023-02-13T13:24:25.964Z,17.20
2023-02-13T13:25:43.978Z,18.20
2023-02-13T13:26:49.942Z,17.40
2023-02-13T13:27:57.947Z,17.80
2023-02-13T13:29:03.888Z,17.07
2023-02-13T13:30:18.029Z,17.50
2023-02-13T13:31:21.261Z,18.33
2023-02-13T13:32:23.838Z,16.93
2023-02-13T13:33:28.335Z,17.73
2023-02-13T13:34:31.644Z,17.27
2023-02-13T13:35:34.463Z,17.83
2023-02-13T13:36:54.016Z,17.40
2023-02-13T13:38:06.681Z,16.80
2023-02-13T13:39:24.792Z,16.83
2023-02-13T13:40:32.368Z,17.73
2023-02-13T13:41:51.692Z,14.10
2023-02-13T13:43:29.795Z,13.37
2023-02-13T13:44:49.233Z,13.33
2023-02-13T13:46:09.441Z,14.87
2023-02-13T13:47:23.818Z,16.20
2023-02-13T13:49:02.823Z,16.07
2023-02-13T13:50:06.990Z,15.80
2023-02-13T13:51:17.912Z,16.73
2023-02-13T13:52:21.173Z,17.60
2023-02-13T13:53:26.481Z,16.83
2023-02-13T13:54:35.070Z,17.13
2023-02-13T13:56:00.972Z,15.23
2023-02-13T13:57:02.483Z,15.57
2023-02-13T13:58:04.740Z,15.47
2023-02-13T13:59:17.635Z,15.67
2023-02-13T14:00:26.159Z,15.97
2023-02-13T14:01:29.681Z,15.07
2023-02-13T14:02:48.327Z,13.70
2023-02-13T14:03:52.602Z,13.30
2023-02-13T14:05:15.611Z,14.17
2023-02-13T14:06:45.009Z,13.37
2023-02-13T14:07:49.510Z,13.30
2023-02-13T14:09:01.731Z,13.87
2023-02-13T14:10:04.697Z,14.50
2023-02-13T14:11:25.624Z,14.73
2023-02-13T14:12:30.175Z,13.83
2023-02-13T14:13:40.304Z,13.67
2023-02-13T14:14:41.789Z,13.43
2023-02-13T14:15:44.673Z,14.37
2023-02-13T14:16:46.816Z,13.57
2023-02-13T14:17:52.028Z,14.27
2023-02-13T14:18:53.763Z,14.50
2023-02-13T14:19:58.273Z,14.10
2023-02-13T14:21:02.457Z,13.30
2023-02-13T14:22:19.721Z,13.63
2023-02-13T14:23:50.414Z,13.77
2023-02-13T14:24:58.042Z,14.37
2023-02-13T14:26:17.623Z,13.30
2023-02-13T14:27:39.308Z,13.40
2023-02-13T14:28:43.904Z,14.10
2023-02-13T14:29:48.656Z,15.20
2023-02-13T14:30:55.796Z,20.93
2023-02-13T14:32:03.819Z,15.17
2023-02-13T14:33:28.671Z,14.67
2023-02-13T14:34:33.880Z,12.80
2023-02-13T14:35:37.993Z,12.50
2023-02-13T14:37:02.211Z,12.23
2023-02-13T14:38:07.986Z,12.90
2023-02-13T14:39:34.315Z,13.97